createdAt,value
2023-04-21T00:02:08.211Z,100.00
2023-04-21T00:05:03.334Z,100.00
2023-04-21T00:07:50.140Z,100.00
2023-04-21T00:10:23.285Z,100.00
2023-04-21T00:13:10.139Z,100.00
2023-04-21T00:15:43.288Z,100.00
2023-04-21T00:18:30.150Z,100.00
2023-04-21T00:21:04.287Z,100.00
2023-04-21T00:23:51.138Z,99.87
2023-04-21T00:26:24.511Z,100.00
2023-04-21T00:29:11.170Z,100.00
2023-04-21T00:31:44.308Z,100.00
2023-04-21T00:34:31.187Z,100.00
2023-04-21T00:37:11.175Z,100.00
2023-04-21T00:39:58.177Z,100.00
2023-04-21T00:42:39.170Z,100.00
2023-04-21T00:45:26.197Z,100.00
2023-04-21T00:47:59.636Z,100.00
2023-04-21T00:50:46.154Z,100.00
2023-04-21T00:53:28.174Z,100.00
2023-04-21T00:56:15.176Z,100.00
2023-04-21T00:58:49.971Z,100.00
2023-04-21T01:01:38.159Z,100.00
2023-04-21T01:04:19.205Z,100.00
2023-04-21T01:07:06.144Z,100.00
2023-04-21T01:09:47.177Z,100.00
2023-04-21T01:12:42.163Z,100.00
2023-04-21T01:15:29.179Z,100.00
2023-04-21T01:18:04.639Z,100.00
2023-04-21T01:20:51.172Z,100.00
2023-04-21T01:23:24.313Z,100.00
2023-04-21T01:26:11.174Z,100.00
2023-04-21T01:28:44.345Z,100.00
2023-04-21T01:31:31.228Z,100.00
2023-04-21T01:34:06.337Z,100.00
2023-04-21T01:36:55.920Z,100.00
2023-04-21T01:39:29.301Z,100.00
2023-04-21T01:42:17.183Z,100.00
2023-04-21T01:44:50.360Z,100.00
2023-04-21T01:47:37.320Z,100.00
2023-04-21T01:50:18.166Z,100.00
2023-04-21T01:53:12.155Z,100.00
2023-04-21T01:55:59.239Z,100.00
2023-04-21T01:58:32.505Z,100.00
2023-04-21T02:01:19.226Z,100.00
2023-04-21T02:03:52.522Z,100.00
2023-04-21T02:06:39.189Z,100.00
2023-04-21T02:09:19.382Z,100.00
2023-04-21T02:12:07.255Z,100.00
2023-04-21T02:14:40.388Z,100.00
2023-04-21T02:17:27.272Z,100.00
2023-04-21T02:20:07.248Z,100.00
2023-04-21T02:22:54.185Z,100.00
2023-04-21T02:25:28.157Z,100.00
2023-04-21T02:28:15.225Z,100.00
2023-04-21T02:30:55.251Z,100.00
2023-04-21T02:33:52.160Z,100.00
2023-04-21T02:36:39.243Z,100.00
2023-04-21T02:39:19.441Z,100.00
2023-04-21T02:42:13.256Z,100.00
2023-04-21T02:45:00.210Z,100.00
2023-04-21T02:47:33.374Z,100.00
2023-04-21T02:50:20.236Z,100.00
2023-04-21T02:52:53.314Z,100.00
2023-04-21T02:55:40.242Z,100.00
2023-04-21T02:58:13.324Z,100.00
2023-04-21T03:01:00.353Z,100.00
2023-04-21T03:03:33.598Z,100.00
2023-04-21T03:06:21.225Z,100.00
2023-04-21T03:08:56.348Z,100.00
2023-04-21T03:11:43.229Z,100.00
2023-04-21T03:14:16.369Z,100.00
2023-04-21T03:17:03.223Z,100.00
2023-04-21T03:19:36.309Z,100.00
2023-04-21T03:22:23.215Z,100.00
2023-04-21T03:25:03.219Z,100.00
2023-04-21T03:27:50.207Z,100.00
2023-04-21T03:30:30.208Z,100.00
2023-04-21T03:33:24.212Z,100.00
2023-04-21T03:36:11.271Z,100.00
2023-04-21T03:38:44.308Z,100.00
2023-04-21T03:41:33.516Z,100.00
2023-04-21T03:44:07.349Z,100.00
2023-04-21T03:46:54.251Z,100.00
2023-04-21T03:49:28.377Z,100.00
2023-04-21T03:52:15.220Z,100.00
2023-04-21T03:54:48.373Z,100.00
2023-04-21T03:57:37.284Z,100.00
2023-04-21T04:00:11.396Z,100.00
2023-04-21T04:02:58.356Z,100.00
2023-04-21T04:05:38.475Z,100.00
2023-04-21T04:08:32.225Z,100.00
2023-04-21T04:11:21.568Z,100.00
2023-04-21T04:14:01.371Z,100.00
2023-04-21T04:16:48.230Z,100.00
2023-04-21T04:19:21.663Z,100.00
2023-04-21T04:22:23.276Z,100.00
2023-04-21T04:25:17.269Z,100.00
2023-04-21T04:28:04.229Z,100.00
2023-04-21T04:30:44.226Z,100.00
2023-04-21T04:33:38.245Z,100.00
2023-04-21T04:36:27.289Z,100.00
2023-04-21T04:39:00.332Z,100.00
2023-04-21T04:41:48.227Z,100.00
2023-04-21T04:44:30.226Z,100.00
2023-04-21T04:47:17.292Z,100.00
2023-04-21T04:49:59.544Z,100.00
2023-04-21T04:52:54.256Z,100.00
2023-04-21T04:55:41.270Z,100.00
2023-04-21T04:58:21.265Z,100.00
2023-04-21T05:01:36.284Z,100.00
2023-04-21T05:04:23.905Z,100.00
2023-04-21T05:06:57.330Z,100.00
2023-04-21T05:09:44.278Z,100.00
2023-04-21T05:12:17.343Z,100.00
2023-04-21T05:15:04.255Z,100.00
2023-04-21T05:17:37.429Z,100.00
2023-04-21T05:20:24.255Z,100.00
2023-04-21T05:22:57.329Z,100.00
2023-04-21T05:25:51.263Z,100.00
2023-04-21T05:28:45.305Z,100.00
2023-04-21T05:31:32.274Z,100.00
2023-04-21T05:34:12.291Z,100.00
2023-04-21T05:36:59.280Z,100.00
2023-04-21T05:39:34.364Z,100.00
2023-04-21T05:42:21.270Z,100.00
2023-04-21T05:45:01.289Z,100.00
2023-04-21T05:47:55.307Z,100.00
2023-04-21T05:50:49.264Z,100.00
2023-04-21T05:53:36.263Z,100.00
2023-04-21T05:56:16.238Z,99.29
2023-04-21T05:59:10.274Z,96.83
2023-04-21T06:01:57.285Z,96.63
2023-04-21T06:04:37.432Z,95.21
2023-04-21T06:07:25.286Z,95.40
2023-04-21T06:09:58.487Z,93.97
2023-04-21T06:12:45.263Z,93.90
2023-04-21T06:15:25.281Z,93.81
2023-04-21T06:18:12.316Z,93.23
2023-04-21T06:20:52.281Z,93.38
2023-04-21T06:23:39.284Z,92.21
2023-04-21T06:26:14.394Z,91.93
2023-04-21T06:29:01.283Z,87.90
2023-04-21T06:31:41.304Z,85.14
2023-04-21T06:34:35.261Z,82.49
2023-04-21T06:37:31.338Z,80.18
2023-04-21T06:40:25.424Z,78.84
2023-04-21T06:43:19.290Z,77.96
2023-04-21T06:46:13.285Z,75.02
2023-04-21T06:49:07.308Z,74.26
2023-04-21T06:51:54.284Z,73.36
2023-04-21T06:54:27.455Z,73.42
2023-04-21T06:57:14.320Z,70.02
2023-04-21T06:59:47.395Z,72.05
2023-04-21T07:02:34.366Z,70.20
2023-04-21T07:05:14.295Z,71.89
2023-04-21T07:08:08.336Z,69.82
2023-04-21T07:10:55.302Z,68.21
2023-04-21T07:13:35.318Z,68.03
2023-04-21T07:16:22.362Z,67.70
2023-04-21T07:19:02.307Z,68.09
2023-04-21T07:21:56.318Z,67.09
2023-04-21T07:24:44.294Z,62.12
2023-04-21T07:27:38.323Z,59.44
2023-04-21T07:30:32.336Z,58.55
2023-04-21T07:33:20.309Z,59.55
2023-04-21T07:35:53.505Z,59.34
2023-04-21T07:38:40.306Z,57.81
2023-04-21T07:41:20.378Z,58.99
2023-04-21T07:44:07.328Z,57.53
2023-04-21T07:46:47.329Z,57.73
2023-04-21T07:49:41.330Z,56.07
2023-04-21T07:52:28.328Z,56.53
2023-04-21T07:55:01.434Z,58.53
2023-04-21T07:57:48.315Z,55.77
2023-04-21T08:00:22.421Z,55.81
2023-04-21T08:03:09.481Z,51.58
2023-04-21T08:05:43.566Z,54.09
2023-04-21T08:08:31.968Z,54.14
2023-04-21T08:11:05.574Z,51.61
2023-04-21T08:13:52.365Z,52.03
2023-04-21T08:16:32.339Z,53.30
2023-04-21T08:19:26.338Z,52.70
2023-04-21T08:22:20.347Z,51.32
2023-04-21T08:25:14.334Z,48.37
2023-04-21T08:28:08.376Z,47.92
2023-04-21T08:30:55.356Z,48.32
2023-04-21T08:33:28.439Z,48.54
2023-04-21T08:36:26.151Z,44.60
2023-04-21T08:39:09.356Z,46.39
2023-04-21T08:41:57.389Z,45.84
2023-04-21T08:44:30.461Z,47.09
2023-04-21T08:47:18.378Z,43.44
2023-04-21T08:49:58.353Z,44.32
2023-04-21T08:52:45.383Z,40.43
2023-04-21T08:55:26.357Z,41.77
2023-04-21T08:58:20.461Z,42.20
2023-04-21T09:01:14.391Z,41.49
2023-04-21T09:04:01.436Z,40.63
2023-04-21T09:06:47.607Z,40.66
2023-04-21T09:09:34.400Z,41.95
2023-04-21T09:12:15.391Z,39.26
2023-04-21T09:15:04.371Z,38.54
2023-04-21T09:17:38.764Z,38.58
2023-04-21T09:20:28.385Z,37.47
2023-04-21T09:23:08.377Z,40.26
2023-04-21T09:26:02.417Z,40.92
2023-04-21T09:28:51.382Z,39.85
2023-04-21T09:31:29.663Z,39.16
2023-04-21T09:34:31.384Z,39.19
2023-04-21T09:37:09.474Z,40.45
2023-04-21T09:40:04.281Z,42.39
2023-04-21T09:42:40.980Z,42.48
2023-04-21T09:45:40.342Z,42.95
2023-04-21T09:48:24.420Z,43.90
2023-04-21T09:54:29.666Z,42.50
2023-04-21T09:57:16.390Z,40.64
2023-04-21T10:00:18.428Z,39.41
2023-04-21T10:03:11.647Z,37.54
2023-04-21T10:05:45.530Z,38.62
2023-04-21T10:08:32.390Z,38.21
2023-04-21T10:11:07.552Z,36.51
2023-04-21T10:13:54.412Z,36.66
2023-04-21T10:16:27.716Z,36.23
2023-04-21T10:19:34.573Z,37.76
2023-04-21T10:22:08.259Z,39.17
2023-04-21T10:24:49.418Z,39.26
2023-04-21T10:27:51.424Z,38.57
2023-04-21T10:30:45.460Z,39.92
2023-04-21T10:33:34.557Z,41.40
2023-04-21T10:36:08.561Z,40.09
2023-04-21T10:39:05.411Z,39.10
2023-04-21T10:41:47.463Z,40.08
2023-04-21T10:44:42.428Z,38.50
2023-04-21T10:47:33.459Z,41.04
2023-04-21T10:50:18.644Z,40.20
2023-04-21T10:53:25.424Z,39.72
2023-04-21T10:56:06.490Z,40.74
2023-04-21T10:58:53.427Z,40.71
2023-04-21T11:01:26.583Z,42.20
2023-04-21T11:04:13.723Z,39.66
2023-04-21T11:06:54.416Z,37.12
2023-04-21T11:09:42.437Z,38.09
2023-04-21T11:12:21.544Z,37.68
2023-04-21T11:15:12.428Z,38.33
2023-04-21T11:17:52.533Z,38.02
2023-04-21T11:20:47.443Z,38.71
2023-04-21T11:23:41.449Z,39.21
2023-04-21T11:26:50.451Z,39.76
2023-04-21T11:29:37.446Z,39.78
2023-04-21T11:32:15.660Z,38.26
2023-04-21T11:35:02.471Z,39.09
2023-04-21T11:37:35.563Z,39.46
2023-04-21T11:40:22.446Z,39.00
2023-04-21T11:42:55.563Z,39.25
2023-04-21T11:45:43.448Z,38.95
2023-04-21T11:48:29.501Z,38.42
2023-04-21T11:51:31.471Z,39.99
2023-04-21T11:54:20.461Z,37.30
2023-04-21T11:56:54.577Z,38.22
2023-04-21T11:59:41.464Z,38.14
2023-04-21T12:02:20.645Z,38.18
2023-04-21T12:05:11.498Z,39.34
2023-04-21T12:07:52.308Z,39.81
2023-04-21T12:10:39.481Z,39.09
2023-04-21T12:13:12.555Z,38.52
2023-04-21T12:15:59.562Z,38.82
2023-04-21T12:18:38.591Z,39.22
2023-04-21T12:21:25.482Z,38.15
2023-04-21T12:23:58.724Z,38.27
2023-04-21T12:26:52.466Z,39.33
2023-04-21T12:29:46.477Z,39.43
2023-04-21T12:32:33.551Z,39.80
2023-04-21T12:35:06.593Z,39.74
2023-04-21T12:37:53.497Z,40.45
2023-04-21T12:40:27.233Z,39.50
2023-04-21T12:43:14.480Z,39.17
2023-04-21T12:45:54.602Z,39.47
2023-04-21T12:48:41.506Z,40.79
2023-04-21T12:51:14.704Z,39.71
2023-04-21T12:54:01.505Z,40.57
2023-04-21T12:56:41.543Z,40.99
2023-04-21T12:59:35.489Z,39.50
2023-04-21T13:02:22.662Z,38.88
2023-04-21T13:04:56.584Z,39.74
2023-04-21T13:07:43.512Z,39.78
2023-04-21T13:10:16.659Z,40.30
2023-04-21T13:13:03.529Z,40.89
2023-04-21T13:15:43.521Z,41.74
2023-04-21T13:18:37.482Z,40.89
2023-04-21T13:21:24.524Z,42.28
2023-04-21T13:24:04.500Z,41.71
2023-04-21T13:26:58.536Z,44.03
2023-04-21T13:29:53.506Z,42.88
2023-04-21T13:32:47.549Z,41.10
2023-04-21T13:35:34.526Z,41.23
2023-04-21T13:38:07.754Z,40.75
2023-04-21T13:40:55.530Z,42.18
2023-04-21T13:43:28.617Z,41.23
2023-04-21T13:46:15.576Z,40.57
2023-04-21T13:48:56.512Z,41.59
2023-04-21T13:51:43.523Z,42.10
2023-04-21T13:54:16.701Z,41.58
2023-04-21T13:57:03.562Z,41.71
2023-04-21T13:59:43.530Z,42.29
2023-04-21T14:02:37.664Z,42.36
2023-04-21T14:05:24.696Z,42.77
2023-04-21T14:08:04.545Z,42.39
2023-04-21T14:10:58.545Z,42.71
2023-04-21T14:14:00.829Z,42.29
2023-04-21T14:16:45.564Z,42.15
2023-04-21T14:19:39.553Z,42.78
2023-04-21T14:22:27.530Z,42.89
2023-04-21T14:25:07.555Z,42.60
2023-04-21T14:28:01.529Z,42.40
2023-04-21T14:30:49.542Z,41.82
2023-04-21T14:33:22.725Z,42.55
2023-04-21T14:36:09.526Z,42.22
2023-04-21T14:38:43.240Z,42.15
2023-04-21T14:41:29.591Z,42.09
2023-04-21T14:44:03.923Z,41.13
2023-04-21T14:46:57.373Z,40.77
2023-04-21T14:49:34.900Z,41.98
2023-04-21T14:52:21.561Z,41.79
2023-04-21T14:55:01.573Z,42.56
2023-04-21T14:57:55.573Z,42.41
2023-04-21T15:00:43.579Z,42.35
2023-04-21T15:03:16.744Z,43.38
2023-04-21T15:06:03.599Z,44.42
2023-04-21T15:08:43.563Z,43.31
2023-04-21T15:11:30.576Z,42.13
2023-04-21T15:14:10.586Z,43.83
2023-04-21T15:17:04.636Z,42.42
2023-04-21T15:19:51.618Z,42.79
2023-04-21T15:22:25.672Z,41.74
2023-04-21T15:25:12.586Z,42.27
2023-04-21T15:27:46.069Z,42.26
2023-04-21T15:30:32.577Z,42.91
2023-04-21T15:33:05.765Z,42.44
2023-04-21T15:35:54.576Z,43.52
2023-04-21T15:38:27.820Z,42.76
2023-04-21T15:41:15.615Z,43.42
2023-04-21T15:43:48.745Z,44.00
2023-04-21T15:46:35.623Z,44.82
2023-04-21T15:49:15.614Z,43.79
2023-04-21T15:52:11.680Z,44.16
2023-04-21T15:54:58.622Z,44.19
2023-04-21T15:57:31.735Z,44.97
2023-04-21T16:00:19.648Z,46.32
2023-04-21T16:02:53.921Z,46.17
2023-04-21T16:05:40.661Z,45.81
2023-04-21T16:08:13.734Z,45.58
2023-04-21T16:11:00.701Z,45.84
2023-04-21T16:13:41.587Z,46.50
2023-04-21T16:16:35.664Z,47.27
2023-04-21T16:19:22.614Z,48.52
2023-04-21T16:22:02.785Z,48.68
2023-04-21T16:24:49.627Z,49.16
2023-04-21T16:27:29.610Z,48.43
2023-04-21T16:30:16.601Z,48.65
2023-04-21T16:32:49.717Z,50.11
2023-04-21T16:35:36.711Z,50.44
2023-04-21T16:38:17.655Z,52.11
2023-04-21T16:41:11.649Z,50.67
2023-04-21T16:44:05.619Z,53.15
2023-04-21T16:46:52.739Z,54.53
2023-04-21T16:49:32.780Z,51.40
2023-04-21T16:52:19.639Z,50.82
2023-04-21T16:54:52.744Z,50.40
2023-04-21T16:57:40.702Z,50.16
2023-04-21T17:00:14.707Z,50.26
2023-04-21T17:03:01.795Z,51.75
2023-04-21T17:05:34.737Z,52.96
2023-04-21T17:08:21.640Z,52.74
2023-04-21T17:11:01.621Z,52.52
2023-04-21T17:13:48.634Z,53.63
2023-04-21T17:16:21.797Z,54.25
2023-04-21T17:19:08.603Z,55.63
2023-04-21T17:21:48.649Z,54.51
2023-04-21T17:24:52.307Z,56.25
2023-04-21T17:27:49.756Z,57.33
2023-04-21T17:30:36.640Z,58.12
2023-04-21T17:36:03.127Z,58.37
2023-04-21T17:38:36.833Z,59.40
2023-04-21T17:41:23.640Z,59.25
2023-04-21T17:43:56.739Z,59.87
2023-04-21T17:46:43.812Z,59.84
2023-04-21T17:49:18.240Z,60.54
2023-04-21T17:52:04.622Z,61.24
2023-04-21T17:54:37.939Z,61.49
2023-04-21T17:57:24.645Z,62.04
2023-04-21T18:00:04.648Z,62.45
2023-04-21T18:02:51.718Z,64.19
2023-04-21T18:05:24.766Z,63.56
2023-04-21T18:08:11.647Z,64.49
2023-04-21T18:10:44.737Z,64.88
2023-04-21T18:13:31.658Z,66.68
2023-04-21T18:16:04.897Z,65.63
2023-04-21T18:18:53.657Z,66.94
2023-04-21T18:21:28.228Z,66.72
2023-04-21T18:24:14.645Z,67.11
2023-04-21T18:26:47.777Z,67.61
2023-04-21T18:29:34.692Z,68.76
2023-04-21T18:32:07.884Z,68.41
2023-04-21T18:34:54.664Z,69.07
2023-04-21T18:37:27.782Z,69.10
2023-04-21T18:40:15.677Z,69.80
2023-04-21T18:42:55.654Z,69.64
2023-04-21T18:45:42.688Z,69.81
2023-04-21T18:48:22.692Z,69.87
2023-04-21T18:51:09.659Z,70.57
2023-04-21T18:53:49.688Z,70.43
2023-04-21T18:56:37.673Z,71.02
2023-04-21T18:59:17.695Z,70.95
2023-04-21T19:02:12.754Z,71.21
2023-04-21T19:04:59.690Z,71.46
2023-04-21T19:07:39.679Z,72.23
2023-04-21T19:10:27.666Z,73.06
2023-04-21T19:13:00.826Z,73.73
2023-04-21T19:15:47.703Z,73.86
2023-04-21T19:18:20.881Z,73.96
2023-04-21T19:21:07.716Z,74.58
2023-04-21T19:23:40.771Z,74.47
2023-04-21T19:26:34.692Z,74.78
2023-04-21T19:29:21.658Z,75.45
2023-04-21T19:31:54.939Z,75.07
2023-04-21T19:34:41.684Z,75.77
2023-04-21T19:37:14.832Z,75.83
2023-04-21T19:40:01.688Z,76.16
2023-04-21T19:42:34.793Z,76.15
2023-04-21T19:45:21.700Z,76.54
2023-04-21T19:47:54.902Z,76.46
2023-04-21T19:50:42.711Z,76.86
2023-04-21T19:53:15.874Z,76.94
2023-04-21T19:56:02.685Z,77.23
2023-04-21T19:58:40.634Z,77.90
2023-04-21T20:01:27.734Z,77.63
2023-04-21T20:04:01.103Z,77.86
2023-04-21T20:06:47.697Z,78.28
2023-04-21T20:09:20.889Z,78.51
2023-04-21T20:12:07.717Z,78.86
2023-04-21T20:14:47.708Z,78.55
2023-04-21T20:17:35.733Z,79.38
2023-04-21T20:20:09.496Z,79.07
2023-04-21T20:22:56.728Z,79.67
2023-04-21T20:25:36.723Z,79.63
2023-04-21T20:28:30.707Z,80.13
2023-04-21T20:31:17.727Z,79.87
2023-04-21T20:33:57.705Z,80.23
2023-04-21T20:36:44.730Z,80.64
2023-04-21T20:39:19.056Z,80.89
2023-04-21T20:42:12.989Z,81.10
2023-04-21T20:44:48.193Z,81.37
2023-04-21T20:47:35.719Z,81.32
2023-04-21T20:50:09.026Z,81.22
2023-04-21T20:52:56.717Z,81.87
2023-04-21T20:55:36.743Z,82.20
2023-04-21T20:58:31.757Z,82.43
2023-04-21T21:01:19.789Z,82.54
2023-04-21T21:03:59.887Z,83.02
2023-04-21T21:06:46.703Z,83.45
2023-04-21T21:09:26.736Z,83.32
2023-04-21T21:12:13.735Z,83.77
2023-04-21T21:14:47.015Z,83.63
2023-04-21T21:17:33.783Z,84.09
2023-04-21T21:20:07.215Z,84.04
2023-04-21T21:22:53.747Z,84.63
2023-04-21T21:25:26.932Z,84.78
2023-04-21T21:28:13.763Z,84.86
2023-04-21T21:30:46.842Z,84.81
2023-04-21T21:33:33.729Z,85.18
2023-04-21T21:36:13.743Z,85.31
2023-04-21T21:39:00.745Z,85.68
2023-04-21T21:41:40.713Z,85.31
2023-04-21T21:44:27.731Z,86.03
2023-04-21T21:47:07.791Z,85.59
2023-04-21T21:50:02.750Z,85.99
2023-04-21T21:52:49.742Z,86.15
2023-04-21T21:55:29.761Z,86.06
2023-04-21T21:58:16.738Z,86.41
2023-04-21T22:00:52.014Z,86.59
2023-04-21T22:03:39.049Z,86.82
2023-04-21T22:06:16.299Z,86.96
2023-04-21T22:09:03.749Z,86.98
2023-04-21T22:11:37.133Z,87.18
2023-04-21T22:14:24.292Z,87.44
2023-04-21T22:16:57.878Z,87.24
2023-04-21T22:19:47.773Z,87.89
2023-04-21T22:22:20.910Z,87.61
2023-04-21T22:25:07.769Z,87.91
2023-04-21T22:27:47.795Z,87.87
2023-04-21T22:30:34.755Z,88.26
2023-04-21T22:33:07.948Z,88.00
2023-04-21T22:35:54.766Z,88.51
2023-04-21T22:38:34.752Z,88.30
2023-04-21T22:41:28.757Z,88.49
2023-04-21T22:44:22.801Z,88.47
2023-04-21T22:47:16.908Z,88.98
2023-04-21T22:50:03.773Z,89.33
2023-04-21T22:52:36.928Z,89.34
2023-04-21T22:55:23.772Z,89.50
2023-04-21T22:57:56.917Z,89.21
2023-04-21T23:00:43.822Z,89.43
2023-04-21T23:03:17.108Z,89.65
2023-04-21T23:06:03.790Z,89.70
2023-04-21T23:08:36.978Z,89.58
2023-04-21T23:11:23.780Z,89.91
2023-04-21T23:13:56.912Z,89.80
2023-04-21T23:16:43.843Z,90.36
2023-04-21T23:19:16.915Z,90.33
2023-04-21T23:22:03.787Z,90.44
2023-04-21T23:24:36.985Z,90.58
2023-04-21T23:27:30.796Z,90.92
2023-04-21T23:30:18.785Z,91.14
2023-04-21T23:32:58.841Z,90.81
2023-04-21T23:35:45.793Z,91.12
2023-04-21T23:38:19.138Z,91.04
2023-04-21T23:41:05.797Z,91.49
2023-04-21T23:43:45.788Z,91.44
2023-04-21T23:46:39.875Z,91.53
2023-04-21T23:49:26.772Z,91.91
2023-04-21T23:52:06.802Z,91.93
2023-04-21T23:54:53.786Z,92.05
2023-04-21T23:57:26.897Z,91.89
